sensor_id;sensor_type;location;lat;lon;timestamp;pressure;altitude;pressure_sealevel;temperature;humidity
6200;BME280;3133;43.214;27.906;2023-03-02T00:05:39;101339.69;;;5.55;100.00
6200;BME280;3133;43.214;27.906;2023-03-02T00:08:17;101372.50;;;5.83;100.00
6200;BME280;3133;43.214;27.906;2023-03-02T00:14:07;101382.91;;;5.59;100.00
6200;BME280;3133;43.214;27.906;2023-03-02T00:16:41;101384.13;;;5.69;100.00
6200;BME280;3133;43.214;27.906;2023-03-02T00:19:13;101369.94;;;5.58;100.00
6200;BME280;3133;43.214;27.906;2023-03-02T00:25:03;101354.97;;;5.48;100.00
6200;BME280;3133;43.214;27.906;2023-03-02T00:33:57;101344.34;;;5.40;100.00
6200;BME280;3133;43.214;27.906;2023-03-02T00:36:24;101340.25;;;5.21;100.00
6200;BME280;3133;43.214;27.906;2023-03-02T00:42:14;101336.13;;;5.03;100.00
6200;BME280;3133;43.214;27.906;2023-03-02T00:44:46;101330.09;;;5.02;100.00
6200;BME280;3133;43.214;27.906;2023-03-02T00:50:40;101333.88;;;5.12;100.00
6200;BME280;3133;43.214;27.906;2023-03-02T00:53:07;101330.06;;;5.26;100.00
6200;BME280;3133;43.214;27.906;2023-03-02T00:56:08;101331.44;;;5.16;100.00
6200;BME280;3133;43.214;27.906;2023-03-02T00:59:12;101327.94;;;5.14;100.00
6200;BME280;3133;43.214;27.906;2023-03-02T01:05:12;101317.09;;;5.01;100.00
6200;BME280;3133;43.214;27.906;2023-03-02T01:13:26;101314.69;;;5.30;100.00
6200;BME280;3133;43.214;27.906;2023-03-02T01:19:15;101308.31;;;5.19;100.00
6200;BME280;3133;43.214;27.906;2023-03-02T01:21:48;101307.41;;;5.19;100.00
6200;BME280;3133;43.214;27.906;2023-03-02T01:27:37;101314.69;;;5.05;100.00
6200;BME280;3133;43.214;27.906;2023-03-02T01:30:05;101300.94;;;5.06;100.00
6200;BME280;3133;43.214;27.906;2023-03-02T01:35:55;101307.66;;;5.01;100.00
6200;BME280;3133;43.214;27.906;2023-03-02T01:38:22;101302.38;;;4.98;100.00
6200;BME280;3133;43.214;27.906;2023-03-02T01:44:35;101295.06;;;5.10;100.00
6200;BME280;3133;43.214;27.906;2023-03-02T01:50:25;101307.25;;;5.39;100.00
6200;BME280;3133;43.214;27.906;2023-03-02T01:56:17;101284.16;;;4.94;100.00
6200;BME280;3133;43.214;27.906;2023-03-02T02:02:08;101316.69;;;5.39;100.00
6200;BME280;3133;43.214;27.906;2023-03-02T02:04:41;101321.78;;;5.11;100.00
6200;BME280;3133;43.214;27.906;2023-03-02T02:10:31;101312.81;;;5.01;100.00
6200;BME280;3133;43.214;27.906;2023-03-02T02:13:00;101311.38;;;5.09;100.00
6200;BME280;3133;43.214;27.906;2023-03-02T02:18:49;101304.19;;;5.01;100.00
6200;BME280;3133;43.214;27.906;2023-03-02T02:21:16;101300.94;;;5.06;100.00
6200;BME280;3133;43.214;27.906;2023-03-02T02:27:08;101303.69;;;5.11;100.00
6200;BME280;3133;43.214;27.906;2023-03-02T02:32:59;101311.50;;;5.12;100.00
6200;BME280;3133;43.214;27.906;2023-03-02T02:35:28;101304.47;;;5.08;100.00
6200;BME280;3133;43.214;27.906;2023-03-02T02:41:23;101305.06;;;5.01;100.00
6200;BME280;3133;43.214;27.906;2023-03-02T02:43:53;101305.84;;;4.99;100.00
6200;BME280;3133;43.214;27.906;2023-03-02T02:49:43;101297.13;;;4.95;100.00
6200;BME280;3133;43.214;27.906;2023-03-02T02:55:37;101303.22;;;4.97;100.00
6200;BME280;3133;43.214;27.906;2023-03-02T03:01:28;101316.28;;;5.02;100.00
6200;BME280;3133;43.214;27.906;2023-03-02T03:03:57;101306.41;;;4.90;100.00
6200;BME280;3133;43.214;27.906;2023-03-02T03:06:27;101233.38;;;4.47;100.00
6200;BME280;3133;43.214;27.906;2023-03-02T03:09:03;101303.72;;;4.87;100.00
6200;BME280;3133;43.214;27.906;2023-03-02T03:11:34;101303.81;;;4.90;100.00
6200;BME280;3133;43.214;27.906;2023-03-02T03:14:04;101233.13;;;4.39;100.00
6200;BME280;3133;43.214;27.906;2023-03-02T03:16:37;101305.41;;;4.87;100.00
6200;BME280;3133;43.214;27.906;2023-03-02T03:19:09;101306.31;;;4.87;100.00
6200;BME280;3133;43.214;27.906;2023-03-02T03:21:40;101265.97;;;4.67;100.00
6200;BME280;3133;43.214;27.906;2023-03-02T03:24:07;101211.63;;;4.40;100.00
6200;BME280;3133;43.214;27.906;2023-03-02T03:26:35;101303.09;;;4.94;100.00
6200;BME280;3133;43.214;27.906;2023-03-02T03:29:05;101312.88;;;5.03;100.00
6200;BME280;3133;43.214;27.906;2023-03-02T03:31:33;101314.03;;;5.11;100.00
6200;BME280;3133;43.214;27.906;2023-03-02T03:34:01;101315.41;;;5.01;100.00
6200;BME280;3133;43.214;27.906;2023-03-02T03:36:28;101312.44;;;5.14;100.00
6200;BME280;3133;43.214;27.906;2023-03-02T03:38:56;101321.41;;;5.00;100.00
6200;BME280;3133;43.214;27.906;2023-03-02T03:41:24;101257.31;;;4.66;100.00
6200;BME280;3133;43.214;27.906;2023-03-02T03:43:51;101322.47;;;5.07;100.00
6200;BME280;3133;43.214;27.906;2023-03-02T03:46:18;101327.56;;;5.04;100.00
6200;BME280;3133;43.214;27.906;2023-03-02T03:48:48;101270.41;;;4.71;100.00
6200;BME280;3133;43.214;27.906;2023-03-02T03:51:15;101331.50;;;4.94;100.00
6200;BME280;3133;43.214;27.906;2023-03-02T03:53:43;101339.25;;;4.94;100.00
6200;BME280;3133;43.214;27.906;2023-03-02T03:56:09;101335.41;;;5.07;100.00
6200;BME280;3133;43.214;27.906;2023-03-02T03:58:36;101350.31;;;5.14;100.00
6200;BME280;3133;43.214;27.906;2023-03-02T04:01:04;101347.31;;;5.27;100.00
6200;BME280;3133;43.214;27.906;2023-03-02T04:03:30;101351.13;;;5.36;100.00
6200;BME280;3133;43.214;27.906;2023-03-02T04:05:59;101346.00;;;5.38;100.00
6200;BME280;3133;43.214;27.906;2023-03-02T04:08:26;101349.78;;;5.48;100.00
6200;BME280;3133;43.214;27.906;2023-03-02T04:10:53;101349.25;;;5.58;100.00
6200;BME280;3133;43.214;27.906;2023-03-02T04:13:20;101319.69;;;5.50;100.00
6200;BME280;3133;43.214;27.906;2023-03-02T04:15:47;101269.22;;;5.37;100.00
6200;BME280;3133;43.214;27.906;2023-03-02T04:18:14;101314.03;;;5.63;100.00
6200;BME280;3133;43.214;27.906;2023-03-02T04:20:41;101353.47;;;5.81;100.00
6200;BME280;3133;43.214;27.906;2023-03-02T04:23:10;101349.03;;;5.77;100.00
6200;BME280;3133;43.214;27.906;2023-03-02T04:25:36;101352.31;;;5.98;100.00
6200;BME280;3133;43.214;27.906;2023-03-02T04:28:04;101302.41;;;5.75;100.00
6200;BME280;3133;43.214;27.906;2023-03-02T04:30:31;101344.53;;;5.46;100.00
6200;BME280;3133;43.214;27.906;2023-03-02T04:32:58;101290.44;;;5.27;100.00
6200;BME280;3133;43.214;27.906;2023-03-02T04:35:25;101356.78;;;5.77;100.00
6200;BME280;3133;43.214;27.906;2023-03-02T04:37:52;101297.75;;;5.65;100.00
6200;BME280;3133;43.214;27.906;2023-03-02T04:40:20;101303.50;;;5.82;100.00
6200;BME280;3133;43.214;27.906;2023-03-02T04:42:47;101356.19;;;6.10;100.00
6200;BME280;3133;43.214;27.906;2023-03-02T04:45:18;101260.97;;;5.47;100.00
6200;BME280;3133;43.214;27.906;2023-03-02T04:47:51;101146.34;;;4.95;100.00
6200;BME280;3133;43.214;27.906;2023-03-02T04:50:18;101266.38;;;5.55;100.00
6200;BME280;3133;43.214;27.906;2023-03-02T04:52:45;101133.03;;;4.57;100.00
6200;BME280;3133;43.214;27.906;2023-03-02T04:55:17;101378.22;;;5.98;100.00
6200;BME280;3133;43.214;27.906;2023-03-02T04:57:47;101355.28;;;5.83;100.00
6200;BME280;3133;43.214;27.906;2023-03-02T05:00:16;101376.47;;;5.97;100.00
6200;BME280;3133;43.214;27.906;2023-03-02T05:02:52;101296.19;;;5.18;100.00
6200;BME280;3133;43.214;27.906;2023-03-02T05:05:26;101374.16;;;5.30;100.00
6200;BME280;3133;43.214;27.906;2023-03-02T05:07:53;101349.69;;;4.96;100.00
6200;BME280;3133;43.214;27.906;2023-03-02T05:10:21;101379.78;;;4.95;100.00
6200;BME280;3133;43.214;27.906;2023-03-02T05:12:49;101345.28;;;4.70;100.00
6200;BME280;3133;43.214;27.906;2023-03-02T05:15:32;101336.44;;;4.87;100.00
6200;BME280;3133;43.214;27.906;2023-03-02T05:18:00;101343.28;;;4.86;100.00
6200;BME280;3133;43.214;27.906;2023-03-02T05:20:27;101371.59;;;5.07;100.00
6200;BME280;3133;43.214;27.906;2023-03-02T05:22:58;101374.63;;;4.95;100.00
6200;BME280;3133;43.214;27.906;2023-03-02T05:25:28;101222.25;;;4.02;100.00
6200;BME280;3133;43.214;27.906;2023-03-02T05:27:57;101383.75;;;5.09;100.00
6200;BME280;3133;43.214;27.906;2023-03-02T05:30:24;101308.25;;;4.71;100.00
6200;BME280;3133;43.214;27.906;2023-03-02T05:32:51;101383.09;;;5.15;100.00
6200;BME280;3133;43.214;27.906;2023-03-02T05:35:20;101382.09;;;5.11;100.00
6200;BME280;3133;43.214;27.906;2023-03-02T05:37:47;101310.16;;;4.51;100.00
6200;BME280;3133;43.214;27.906;2023-03-02T05:40:17;101374.44;;;4.67;100.00
6200;BME280;3133;43.214;27.906;2023-03-02T05:42:45;101336.91;;;4.31;100.00
6200;BME280;3133;43.214;27.906;2023-03-02T05:45:17;101318.72;;;4.06;100.00
6200;BME280;3133;43.214;27.906;2023-03-02T05:47:45;101390.06;;;4.48;100.00
6200;BME280;3133;43.214;27.906;2023-03-02T05:50:12;101161.56;;;3.22;100.00
6200;BME280;3133;43.214;27.906;2023-03-02T05:52:42;101328.94;;;4.25;100.00
6200;BME280;3133;43.214;27.906;2023-03-02T05:55:10;101400.03;;;4.61;100.00
6200;BME280;3133;43.214;27.906;2023-03-02T05:57:37;101227.72;;;3.65;100.00
6200;BME280;3133;43.214;27.906;2023-03-02T06:00:06;101402.84;;;4.67;100.00
6200;BME280;3133;43.214;27.906;2023-03-02T06:02:38;101110.72;;;3.18;100.00
6200;BME280;3133;43.214;27.906;2023-03-02T06:05:07;101416.16;;;5.00;100.00
6200;BME280;3133;43.214;27.906;2023-03-02T06:07:35;101420.69;;;5.07;100.00
6200;BME280;3133;43.214;27.906;2023-03-02T06:10:03;101419.72;;;5.03;100.00
6200;BME280;3133;43.214;27.906;2023-03-02T06:12:30;101427.81;;;5.12;100.00
6200;BME280;3133;43.214;27.906;2023-03-02T06:14:57;101427.22;;;5.19;100.00
6200;BME280;3133;43.214;27.906;2023-03-02T06:17:24;101430.94;;;5.27;100.00
6200;BME280;3133;43.214;27.906;2023-03-02T06:19:58;101365.34;;;5.00;100.00
6200;BME280;3133;43.214;27.906;2023-03-02T06:22:25;101403.66;;;5.35;100.00
6200;BME280;3133;43.214;27.906;2023-03-02T06:24:52;101268.53;;;4.43;100.00
6200;BME280;3133;43.214;27.906;2023-03-02T06:27:21;101297.34;;;4.54;100.00
6200;BME280;3133;43.214;27.906;2023-03-02T06:29:50;101410.22;;;5.02;100.00
6200;BME280;3133;43.214;27.906;2023-03-02T06:32:17;101376.81;;;4.85;100.00
6200;BME280;3133;43.214;27.906;2023-03-02T06:34:44;101274.28;;;4.36;100.00
6200;BME280;3133;43.214;27.906;2023-03-02T06:37:15;101315.94;;;4.68;100.00
6200;BME280;3133;43.214;27.906;2023-03-02T06:39:42;101434.97;;;5.43;100.00
6200;BME280;3133;43.214;27.906;2023-03-02T06:42:12;101340.28;;;4.74;100.00
6200;BME280;3133;43.214;27.906;2023-03-02T06:44:41;101430.25;;;5.09;100.00
6200;BME280;3133;43.214;27.906;2023-03-02T06:47:14;101417.09;;;5.02;100.00
6200;BME280;3133;43.214;27.906;2023-03-02T06:49:41;101195.03;;;3.86;100.00
6200;BME280;3133;43.214;27.906;2023-03-02T06:52:10;101249.53;;;4.18;100.00
6200;BME280;3133;43.214;27.906;2023-03-02T06:54:40;101253.16;;;4.01;100.00
6200;BME280;3133;43.214;27.906;2023-03-02T06:57:07;101414.28;;;4.96;100.00
6200;BME280;3133;43.214;27.906;2023-03-02T06:59:35;101436.44;;;5.36;100.00
6200;BME280;3133;43.214;27.906;2023-03-02T07:02:13;101378.50;;;5.06;100.00
6200;BME280;3133;43.214;27.906;2023-03-02T07:04:40;101451.25;;;5.40;100.00
6200;BME280;3133;43.214;27.906;2023-03-02T07:07:07;101398.50;;;5.12;100.00
6200;BME280;3133;43.214;27.906;2023-03-02T07:09:35;101445.31;;;5.43;100.00
6200;BME280;3133;43.214;27.906;2023-03-02T07:12:17;101415.88;;;5.16;100.00
6200;BME280;3133;43.214;27.906;2023-03-02T07:14:58;101449.97;;;5.29;100.00
6200;BME280;3133;43.214;27.906;2023-03-02T07:17:25;101435.13;;;5.24;100.00
6200;BME280;3133;43.214;27.906;2023-03-02T07:19:53;101309.31;;;4.52;100.00
6200;BME280;3133;43.214;27.906;2023-03-02T07:22:24;101440.75;;;5.36;100.00
6200;BME280;3133;43.214;27.906;2023-03-02T07:25:12;101199.00;;;4.01;100.00
6200;BME280;3133;43.214;27.906;2023-03-02T07:28:00;101234.91;;;4.18;100.00
6200;BME280;3133;43.214;27.906;2023-03-02T07:30:28;101323.88;;;4.74;100.00
6200;BME280;3133;43.214;27.906;2023-03-02T07:32:55;101437.59;;;5.44;100.00
6200;BME280;3133;43.214;27.906;2023-03-02T07:35:30;101424.66;;;5.44;100.00
6200;BME280;3133;43.214;27.906;2023-03-02T07:38:06;101406.03;;;5.29;100.00
6200;BME280;3133;43.214;27.906;2023-03-02T07:40:39;101286.25;;;4.80;100.00
6200;BME280;3133;43.214;27.906;2023-03-02T07:43:31;101432.03;;;5.83;100.00
6200;BME280;3133;43.214;27.906;2023-03-02T07:46:00;101282.22;;;5.13;100.00
6200;BME280;3133;43.214;27.906;2023-03-02T07:48:28;101434.13;;;6.18;100.00
6200;BME280;3133;43.214;27.906;2023-03-02T07:50:57;101238.84;;;5.05;100.00
6200;BME280;3133;43.214;27.906;2023-03-02T07:53:26;101440.44;;;6.28;100.00
6200;BME280;3133;43.214;27.906;2023-03-02T07:55:53;101438.38;;;6.16;100.00
6200;BME280;3133;43.214;27.906;2023-03-02T07:58:22;101440.03;;;5.89;100.00
6200;BME280;3133;43.214;27.906;2023-03-02T08:00:51;101431.66;;;5.72;100.00
6200;BME280;3133;43.214;27.906;2023-03-02T08:03:22;101431.13;;;5.82;100.00
6200;BME280;3133;43.214;27.906;2023-03-02T08:05:55;101200.09;;;4.31;100.00
6200;BME280;3133;43.214;27.906;2023-03-02T08:08:23;101431.66;;;5.72;100.00
6200;BME280;3133;43.214;27.906;2023-03-02T08:10:50;101371.28;;;5.47;100.00
6200;BME280;3133;43.214;27.906;2023-03-02T08:13:17;101425.53;;;5.94;100.00
6200;BME280;3133;43.214;27.906;2023-03-02T08:16:20;101439.28;;;5.93;100.00
6200;BME280;3133;43.214;27.906;2023-03-02T08:18:51;101446.13;;;5.91;100.00
6200;BME280;3133;43.214;27.906;2023-03-02T08:21:20;101282.34;;;5.16;100.00
6200;BME280;3133;43.214;27.906;2023-03-02T08:23:50;101442.47;;;6.09;100.00
6200;BME280;3133;43.214;27.906;2023-03-02T08:26:35;101444.94;;;6.06;100.00
6200;BME280;3133;43.214;27.906;2023-03-02T08:29:06;101247.41;;;5.02;100.00
6200;BME280;3133;43.214;27.906;2023-03-02T08:34:41;101351.31;;;5.68;100.00
6200;BME280;3133;43.214;27.906;2023-03-02T08:37:22;101428.50;;;6.31;100.00
6200;BME280;3133;43.214;27.906;2023-03-02T08:39:54;101429.78;;;6.18;100.00
6200;BME280;3133;43.214;27.906;2023-03-02T08:42:22;101388.69;;;6.01;100.00
6200;BME280;3133;43.214;27.906;2023-03-02T08:44:49;101343.19;;;5.57;100.00
6200;BME280;3133;43.214;27.906;2023-03-02T08:47:16;101274.69;;;5.19;100.00
6200;BME280;3133;43.214;27.906;2023-03-02T08:50:08;101359.47;;;5.55;100.00
6200;BME280;3133;43.214;27.906;2023-03-02T08:52:35;101435.13;;;5.96;100.00
6200;BME280;3133;43.214;27.906;2023-03-02T08:55:03;101312.03;;;5.27;100.00
6200;BME280;3133;43.214;27.906;2023-03-02T08:57:31;101430.91;;;6.00;100.00
6200;BME280;3133;43.214;27.906;2023-03-02T08:59:59;101437.75;;;5.98;100.00
6200;BME280;3133;43.214;27.906;2023-03-02T09:02:31;101444.16;;;6.09;100.00
6200;BME280;3133;43.214;27.906;2023-03-02T09:08:27;101407.47;;;5.95;100.00
6200;BME280;3133;43.214;27.906;2023-03-02T09:11:09;101439.41;;;5.96;100.00
6200;BME280;3133;43.214;27.906;2023-03-02T09:13:40;101363.72;;;5.53;100.00
6200;BME280;3133;43.214;27.906;2023-03-02T09:16:08;101329.44;;;5.33;100.00
6200;BME280;3133;43.214;27.906;2023-03-02T09:18:35;101389.50;;;5.75;100.00
6200;BME280;3133;43.214;27.906;2023-03-02T09:21:05;101441.63;;;6.10;100.00
6200;BME280;3133;43.214;27.906;2023-03-02T09:23:49;101433.75;;;6.07;100.00
6200;BME280;3133;43.214;27.906;2023-03-02T09:26:30;101289.88;;;5.35;100.00
6200;BME280;3133;43.214;27.906;2023-03-02T09:29:00;101434.88;;;6.15;100.00
6200;BME280;3133;43.214;27.906;2023-03-02T09:31:30;101299.25;;;5.59;100.00
6200;BME280;3133;43.214;27.906;2023-03-02T09:34:16;101364.47;;;5.99;100.00
6200;BME280;3133;43.214;27.906;2023-03-02T09:36:57;101298.06;;;5.74;100.00
6200;BME280;3133;43.214;27.906;2023-03-02T09:49:22;101411.34;;;6.35;100.00
6200;BME280;3133;43.214;27.906;2023-03-02T09:52:01;101387.09;;;6.33;100.00
6200;BME280;3133;43.214;27.906;2023-03-02T09:57:54;101392.16;;;6.86;100.00
6200;BME280;3133;43.214;27.906;2023-03-02T10:00:29;101399.13;;;6.87;100.00
6200;BME280;3133;43.214;27.906;2023-03-02T10:03:02;101309.75;;;6.45;100.00
6200;BME280;3133;43.214;27.906;2023-03-02T10:05:43;101306.53;;;6.53;100.00
6200;BME280;3133;43.214;27.906;2023-03-02T10:08:15;101294.97;;;6.41;100.00
6200;BME280;3133;43.214;27.906;2023-03-02T10:10:44;101351.19;;;6.74;100.00
6200;BME280;3133;43.214;27.906;2023-03-02T10:13:21;101327.72;;;6.68;100.00
6200;BME280;3133;43.214;27.906;2023-03-02T10:15:58;101384.00;;;7.02;100.00
6200;BME280;3133;43.214;27.906;2023-03-02T10:18:31;101278.13;;;6.55;100.00
6200;BME280;3133;43.214;27.906;2023-03-02T10:21:04;101330.28;;;6.98;100.00
6200;BME280;3133;43.214;27.906;2023-03-02T10:23:44;101318.59;;;7.14;100.00
6200;BME280;3133;43.214;27.906;2023-03-02T10:26:22;101330.75;;;7.15;100.00
6200;BME280;3133;43.214;27.906;2023-03-02T10:28:59;101359.44;;;7.21;100.00
6200;BME280;3133;43.214;27.906;2023-03-02T10:31:40;101390.91;;;7.65;100.00
6200;BME280;3133;43.214;27.906;2023-03-02T10:34:23;101281.47;;;7.15;100.00
6200;BME280;3133;43.214;27.906;2023-03-02T10:40:41;101380.53;;;7.67;100.00
6200;BME280;3133;43.214;27.906;2023-03-02T10:43:16;101381.53;;;7.70;100.00
6200;BME280;3133;43.214;27.906;2023-03-02T10:46:04;101372.72;;;7.65;100.00
6200;BME280;3133;43.214;27.906;2023-03-02T10:48:47;101308.00;;;7.37;100.00
6200;BME280;3133;43.214;27.906;2023-03-02T10:51:33;101360.69;;;7.69;100.00
6200;BME280;3133;43.214;27.906;2023-03-02T10:54:05;101362.84;;;7.85;100.00
6200;BME280;3133;43.214;27.906;2023-03-02T10:57:01;101317.13;;;7.92;100.00
6200;BME280;3133;43.214;27.906;2023-03-02T10:59:37;101297.56;;;7.68;100.00
6200;BME280;3133;43.214;27.906;2023-03-02T11:02:16;101302.25;;;7.85;100.00
6200;BME280;3133;43.214;27.906;2023-03-02T11:04:52;101347.09;;;8.15;100.00
6200;BME280;3133;43.214;27.906;2023-03-02T11:07:24;101201.25;;;7.22;100.00
6200;BME280;3133;43.214;27.906;2023-03-02T11:09:59;101351.63;;;8.22;100.00
6200;BME280;3133;43.214;27.906;2023-03-02T11:12:29;101197.03;;;7.61;100.00
6200;BME280;3133;43.214;27.906;2023-03-02T11:15:17;101271.41;;;7.98;100.00
6200;BME280;3133;43.214;27.906;2023-03-02T11:17:47;101341.03;;;8.50;100.00
6200;BME280;3133;43.214;27.906;2023-03-02T11:20:33;101236.94;;;7.66;100.00
6200;BME280;3133;43.214;27.906;2023-03-02T11:23:28;101330.41;;;8.04;100.00
6200;BME280;3133;43.214;27.906;2023-03-02T11:26:00;101324.22;;;8.34;100.00
6200;BME280;3133;43.214;27.906;2023-03-02T11:28:57;101214.75;;;7.81;100.00
6200;BME280;3133;43.214;27.906;2023-03-02T11:31:37;101218.63;;;7.99;100.00
6200;BME280;3133;43.214;27.906;2023-03-02T11:34:33;101168.44;;;7.60;100.00
6200;BME280;3133;43.214;27.906;2023-03-02T11:37:20;101203.78;;;7.92;100.00
6200;BME280;3133;43.214;27.906;2023-03-02T11:40:04;101154.91;;;7.73;100.00
6200;BME280;3133;43.214;27.906;2023-03-02T11:42:39;101298.59;;;8.52;100.00
6200;BME280;3133;43.214;27.906;2023-03-02T11:45:17;101275.28;;;8.56;100.00
6200;BME280;3133;43.214;27.906;2023-03-02T11:48:02;101119.38;;;7.72;100.00
6200;BME280;3133;43.214;27.906;2023-03-02T11:50:59;101332.41;;;8.96;100.00
6200;BME280;3133;43.214;27.906;2023-03-02T11:54:24;101291.53;;;8.45;100.00
6200;BME280;3133;43.214;27.906;2023-03-02T11:57:17;101176.81;;;7.87;100.00
6200;BME280;3133;43.214;27.906;2023-03-02T11:59:49;101309.66;;;8.84;100.00
6200;BME280;3133;43.214;27.906;2023-03-02T12:02:19;101230.78;;;8.39;100.00
6200;BME280;3133;43.214;27.906;2023-03-02T12:04:47;101311.19;;;8.75;100.00
6200;BME280;3133;43.214;27.906;2023-03-02T12:07:17;101264.97;;;8.60;100.00
6200;BME280;3133;43.214;27.906;2023-03-02T12:09:58;101128.88;;;7.70;100.00
6200;BME280;3133;43.214;27.906;2023-03-02T12:12:45;101170.75;;;7.87;100.00
6200;BME280;3133;43.214;27.906;2023-03-02T12:15:39;101301.06;;;8.46;100.00
6200;BME280;3133;43.214;27.906;2023-03-02T12:18:40;101271.34;;;7.95;100.00
6200;BME280;3133;43.214;27.906;2023-03-02T12:21:22;101162.47;;;6.91;100.00
6200;BME280;3133;43.214;27.906;2023-03-02T12:24:20;101166.47;;;7.13;100.00
6200;BME280;3133;43.214;27.906;2023-03-02T12:27:00;101204.66;;;7.55;100.00
6200;BME280;3133;43.214;27.906;2023-03-02T12:29:42;101185.84;;;7.64;100.00
6200;BME280;3133;43.214;27.906;2023-03-02T12:32:30;101147.94;;;7.33;100.00
6200;BME280;3133;43.214;27.906;2023-03-02T12:38:27;101243.47;;;7.88;100.00
6200;BME280;3133;43.214;27.906;2023-03-02T12:41:13;101307.31;;;8.16;100.00
6200;BME280;3133;43.214;27.906;2023-03-02T12:43:57;101138.34;;;6.93;100.00
6200;BME280;3133;43.214;27.906;2023-03-02T12:46:32;101261.13;;;7.65;100.00
6200;BME280;3133;43.214;27.906;2023-03-02T12:52:20;101231.81;;;7.71;100.00
6200;BME280;3133;43.214;27.906;2023-03-02T12:55:00;101227.66;;;7.78;100.00
6200;BME280;3133;43.214;27.906;2023-03-02T12:57:46;101253.38;;;7.67;100.00
6200;BME280;3133;43.214;27.906;2023-03-02T13:00:17;101275.47;;;7.86;100.00
6200;BME280;3133;43.214;27.906;2023-03-02T13:02:47;101315.13;;;8.17;100.00
6200;BME280;3133;43.214;27.906;2023-03-02T13:05:18;101282.88;;;8.08;100.00
6200;BME280;3133;43.214;27.906;2023-03-02T13:07:55;101145.22;;;7.29;100.00
6200;BME280;3133;43.214;27.906;2023-03-02T13:10:33;101149.78;;;7.39;100.00
6200;BME280;3133;43.214;27.906;2023-03-02T13:13:22;101319.28;;;8.09;100.00
6200;BME280;3133;43.214;27.906;2023-03-02T13:15:57;101314.09;;;8.09;100.00
6200;BME280;3133;43.214;27.906;2023-03-02T13:18:27;101093.91;;;6.78;100.00
6200;BME280;3133;43.214;27.906;2023-03-02T13:21:01;101311.53;;;8.11;100.00
6200;BME280;3133;43.214;27.906;2023-03-02T13:23:31;101310.59;;;8.09;100.00
6200;BME280;3133;43.214;27.906;2023-03-02T13:26:24;101314.34;;;8.21;100.00
6200;BME280;3133;43.214;27.906;2023-03-02T13:29:05;101061.91;;;6.76;100.00
6200;BME280;3133;43.214;27.906;2023-03-02T13:31:34;100988.50;;;6.42;100.00
6200;BME280;3133;43.214;27.906;2023-03-02T13:34:02;101238.50;;;7.60;100.00
6200;BME280;3133;43.214;27.906;2023-03-02T13:36:35;101065.44;;;6.81;100.00
6200;BME280;3133;43.214;27.906;2023-03-02T13:39:18;101288.16;;;8.11;100.00
6200;BME280;3133;43.214;27.906;2023-03-02T13:42:03;101158.75;;;7.53;100.00
6200;BME280;3133;43.214;27.906;2023-03-02T13:44:34;101248.19;;;8.06;100.00
6200;BME280;3133;43.214;27.906;2023-03-02T13:47:01;101267.44;;;7.75;100.00
6200;BME280;3133;43.214;27.906;2023-03-02T13:49:29;101264.28;;;7.54;100.00
6200;BME280;3133;43.214;27.906;2023-03-02T13:52:00;101256.84;;;7.67;100.00
6200;BME280;3133;43.214;27.906;2023-03-02T13:54:30;101229.19;;;7.68;100.00
6200;BME280;3133;43.214;27.906;2023-03-02T13:56:59;101225.03;;;7.76;100.00
6200;BME280;3133;43.214;27.906;2023-03-02T13:59:28;101259.78;;;7.81;100.00
6200;BME280;3133;43.214;27.906;2023-03-02T14:01:57;101143.56;;;6.95;100.00
6200;BME280;3133;43.214;27.906;2023-03-02T14:04:25;101113.88;;;6.48;100.00
6200;BME280;3133;43.214;27.906;2023-03-02T14:06:54;101104.34;;;6.49;100.00
6200;BME280;3133;43.214;27.906;2023-03-02T14:09:21;101124.50;;;6.59;100.00
6200;BME280;3133;43.214;27.906;2023-03-02T14:11:50;101093.03;;;6.44;100.00
6200;BME280;3133;43.214;27.906;2023-03-02T14:14:20;101230.69;;;7.24;100.00
6200;BME280;3133;43.214;27.906;2023-03-02T14:16:51;101106.09;;;6.17;100.00
6200;BME280;3133;43.214;27.906;2023-03-02T14:19:19;101215.91;;;6.86;100.00
6200;BME280;3133;43.214;27.906;2023-03-02T14:21:46;101147.28;;;6.39;100.00
6200;BME280;3133;43.214;27.906;2023-03-02T14:24:15;101045.81;;;5.88;100.00
6200;BME280;3133;43.214;27.906;2023-03-02T14:26:44;101220.28;;;6.88;100.00
6200;BME280;3133;43.214;27.906;2023-03-02T14:29:20;101214.06;;;6.82;100.00
6200;BME280;3133;43.214;27.906;2023-03-02T14:31:49;101036.75;;;5.74;100.00
6200;BME280;3133;43.214;27.906;2023-03-02T14:34:18;101219.09;;;6.76;100.00
6200;BME280;3133;43.214;27.906;2023-03-02T14:36:47;100998.72;;;5.40;100.00
6200;BME280;3133;43.214;27.906;2023-03-02T14:39:19;101188.41;;;6.60;100.00
6200;BME280;3133;43.214;27.906;2023-03-02T14:41:47;101215.78;;;6.81;100.00
6200;BME280;3133;43.214;27.906;2023-03-02T14:44:14;101096.81;;;6.25;100.00
6200;BME280;3133;43.214;27.906;2023-03-02T14:46:42;101025.34;;;5.68;100.00
6200;BME280;3133;43.214;27.906;2023-03-02T14:49:38;101098.19;;;6.11;100.00
6200;BME280;3133;43.214;27.906;2023-03-02T14:52:11;101213.13;;;6.78;100.00
6200;BME280;3133;43.214;27.906;2023-03-02T14:54:47;101209.38;;;6.67;100.00
6200;BME280;3133;43.214;27.906;2023-03-02T14:57:42;101209.28;;;6.64;100.00
6200;BME280;3133;43.214;27.906;2023-03-02T15:00:25;101111.03;;;6.08;100.00
6200;BME280;3133;43.214;27.906;2023-03-02T15:03:11;101006.56;;;5.43;100.00
6200;BME280;3133;43.214;27.906;2023-03-02T15:09:21;101199.50;;;6.54;100.00
6200;BME280;3133;43.214;27.906;2023-03-02T15:11:48;101163.59;;;6.35;100.00
6200;BME280;3133;43.214;27.906;2023-03-02T15:14:15;101200.63;;;6.64;100.00
6200;BME280;3133;43.214;27.906;2023-03-02T15:16:42;101130.75;;;6.34;100.00
6200;BME280;3133;43.214;27.906;2023-03-02T15:19:10;100984.38;;;5.52;100.00
6200;BME280;3133;43.214;27.906;2023-03-02T15:21:37;101206.72;;;6.66;100.00
6200;BME280;3133;43.214;27.906;2023-03-02T15:24:09;101210.75;;;6.55;100.00
6200;BME280;3133;43.214;27.906;2023-03-02T15:26:37;101160.72;;;6.25;100.00
6200;BME280;3133;43.214;27.906;2023-03-02T15:29:05;101197.28;;;6.37;100.00